createdAt,value
2023-01-09T00:00:54.017Z,1.20
2023-01-09T00:03:20.750Z,1.10
2023-01-09T00:05:47.416Z,1.08
2023-01-09T00:08:13.931Z,1.00
2023-01-09T00:10:40.458Z,1.02
2023-01-09T00:13:06.942Z,1.27
2023-01-09T00:15:33.547Z,1.25
2023-01-09T00:18:00.092Z,1.38
2023-01-09T00:20:26.675Z,1.33
2023-01-09T00:22:53.283Z,0.88
2023-01-09T00:25:19.653Z,1.10
2023-01-09T00:27:46.091Z,1.23
2023-01-09T00:30:12.759Z,1.20
2023-01-09T00:32:40.241Z,1.15
2023-01-09T00:35:09.879Z,1.33
2023-01-09T00:37:36.296Z,0.90
2023-01-09T00:40:02.710Z,1.05
2023-01-09T00:42:31.871Z,1.10
2023-01-09T00:45:04.628Z,1.08
2023-01-09T00:47:43.022Z,1.02
2023-01-09T00:50:18.504Z,1.13
2023-01-09T00:52:46.820Z,1.30
2023-01-09T00:55:14.252Z,1.33
2023-01-09T00:57:40.842Z,1.15
2023-01-09T01:00:08.918Z,1.20
2023-01-09T01:02:35.393Z,1.27
2023-01-09T01:05:20.583Z,1.35
2023-01-09T01:07:47.102Z,1.30
2023-01-09T01:10:20.868Z,1.15
2023-01-09T01:12:48.746Z,1.13
2023-01-09T01:15:16.445Z,1.42
2023-01-09T01:17:43.159Z,1.30
2023-01-09T01:20:14.045Z,1.10
2023-01-09T01:22:42.403Z,1.40
2023-01-09T01:25:10.088Z,1.20
2023-01-09T01:27:36.580Z,1.27
2023-01-09T01:30:03.390Z,1.30
2023-01-09T01:32:29.832Z,1.13
2023-01-09T01:34:56.254Z,1.15
2023-01-09T01:37:23.506Z,1.17
2023-01-09T01:39:51.243Z,1.20
2023-01-09T01:42:17.707Z,1.08
2023-01-09T01:44:56.255Z,1.20
2023-01-09T01:47:28.268Z,1.45
2023-01-09T01:49:55.895Z,1.48
2023-01-09T01:52:23.865Z,1.48
2023-01-09T01:54:50.386Z,1.50
2023-01-09T01:57:16.925Z,1.17
2023-01-09T01:59:52.176Z,1.10
2023-01-09T02:02:22.462Z,1.33
2023-01-09T02:04:52.084Z,1.30
2023-01-09T02:07:18.713Z,1.20
2023-01-09T02:09:46.187Z,1.50
2023-01-09T02:12:38.854Z,1.10
2023-01-09T02:15:12.100Z,1.30
2023-01-09T02:17:56.746Z,1.08
2023-01-09T02:20:35.538Z,1.40
2023-01-09T02:23:20.350Z,1.17
2023-01-09T02:26:34.900Z,1.00
2023-01-09T02:29:16.625Z,1.05
2023-01-09T02:31:56.594Z,1.20
2023-01-09T02:34:32.009Z,1.30
2023-01-09T02:37:28.236Z,1.00
2023-01-09T02:40:14.895Z,1.15
2023-01-09T02:42:44.064Z,0.98
2023-01-09T02:45:10.545Z,1.13
2023-01-09T02:47:43.258Z,1.00
2023-01-09T02:50:14.815Z,1.27
2023-01-09T02:53:03.092Z,1.10
2023-01-09T02:56:06.077Z,1.10
2023-01-09T02:58:57.916Z,1.20
2023-01-09T03:01:52.229Z,1.02
2023-01-09T03:04:30.430Z,1.35
2023-01-09T03:07:12.819Z,1.42
2023-01-09T03:09:41.228Z,0.80
2023-01-09T03:12:21.970Z,1.40
2023-01-09T03:14:53.623Z,1.20
2023-01-09T03:17:29.154Z,1.17
2023-01-09T03:19:57.681Z,1.17
2023-01-09T03:22:24.867Z,1.40
2023-01-09T03:24:51.442Z,1.30
2023-01-09T03:27:18.385Z,1.10
2023-01-09T03:29:44.907Z,1.35
2023-01-09T03:32:11.448Z,1.08
2023-01-09T03:34:38.081Z,1.10
2023-01-09T03:37:04.880Z,0.88
2023-01-09T03:39:32.631Z,1.13
2023-01-09T03:41:59.111Z,1.20
2023-01-09T03:44:25.656Z,1.00
2023-01-09T03:46:52.037Z,0.88
2023-01-09T03:49:19.052Z,1.08
2023-01-09T03:51:45.462Z,0.90
2023-01-09T03:54:11.928Z,1.02
2023-01-09T03:56:38.403Z,1.00
2023-01-09T03:59:04.819Z,0.90
2023-01-09T04:01:31.417Z,0.98
2023-01-09T04:03:57.844Z,0.88
2023-01-09T04:06:24.397Z,1.20
2023-01-09T04:08:50.805Z,1.15
2023-01-09T04:11:18.130Z,0.90
2023-01-09T04:13:45.123Z,1.25
2023-01-09T04:16:11.730Z,1.10
2023-01-09T04:18:38.255Z,1.02
2023-01-09T04:21:04.810Z,1.30
2023-01-09T04:23:31.322Z,0.90
2023-01-09T04:25:57.767Z,1.30
2023-01-09T04:28:24.273Z,1.60
2023-01-09T04:30:50.725Z,1.27
2023-01-09T04:33:17.267Z,1.58
2023-01-09T04:35:43.828Z,1.60
2023-01-09T04:38:10.308Z,2.17
2023-01-09T04:40:36.886Z,2.30
2023-01-09T04:43:03.408Z,2.30
2023-01-09T04:45:29.843Z,2.13
2023-01-09T04:47:56.494Z,2.75
2023-01-09T04:50:23.049Z,2.80
2023-01-09T04:52:49.642Z,2.92
2023-01-09T04:55:16.229Z,3.00
2023-01-09T04:57:42.701Z,3.38
2023-01-09T05:00:12.035Z,2.70
2023-01-09T05:02:38.963Z,3.40
2023-01-09T05:05:08.494Z,3.25
2023-01-09T05:07:36.308Z,3.92
2023-01-09T05:10:05.365Z,4.07
2023-01-09T05:12:34.495Z,3.80
2023-01-09T05:15:00.987Z,3.88
2023-01-09T05:17:27.586Z,4.00
2023-01-09T05:19:54.197Z,4.03
2023-01-09T05:22:20.687Z,3.90
2023-01-09T05:24:47.239Z,4.28
2023-01-09T05:27:13.875Z,4.13
2023-01-09T05:29:40.404Z,4.82
2023-01-09T05:32:06.939Z,3.97
2023-01-09T05:34:33.685Z,4.60
2023-01-09T05:37:00.307Z,4.40
2023-01-09T05:39:26.844Z,4.25
2023-01-09T05:41:53.435Z,4.00
2023-01-09T05:44:19.914Z,4.40
2023-01-09T05:46:46.411Z,4.53
2023-01-09T05:49:12.930Z,3.95
2023-01-09T05:51:39.513Z,4.15
2023-01-09T05:54:07.447Z,4.40
2023-01-09T05:56:34.017Z,3.85
2023-01-09T05:59:00.555Z,4.15
2023-01-09T06:01:27.233Z,3.45
2023-01-09T06:03:53.798Z,4.07
2023-01-09T06:06:20.389Z,3.67
2023-01-09T06:08:46.792Z,3.83
2023-01-09T06:11:13.406Z,4.38
2023-01-09T06:13:39.992Z,3.90
2023-01-09T06:16:07.329Z,4.47
2023-01-09T06:18:33.904Z,3.85
2023-01-09T06:21:00.395Z,3.70
2023-01-09T06:23:26.898Z,4.78
2023-01-09T06:25:53.455Z,4.60
2023-01-09T06:28:19.833Z,4.40
2023-01-09T06:30:50.829Z,4.45
2023-01-09T06:33:17.302Z,4.95
2023-01-09T06:35:43.950Z,5.00
2023-01-09T06:38:10.410Z,5.05
2023-01-09T06:40:36.982Z,5.47
2023-01-09T06:43:03.854Z,5.45
2023-01-09T06:45:30.705Z,5.53
2023-01-09T06:47:57.090Z,5.65
2023-01-09T06:50:23.670Z,5.10
2023-01-09T06:52:50.041Z,5.65
2023-01-09T06:55:17.676Z,6.05
2023-01-09T06:57:44.212Z,6.50
2023-01-09T07:00:12.219Z,6.63
2023-01-09T07:02:38.651Z,5.97
2023-01-09T07:05:07.911Z,5.60
2023-01-09T07:07:34.610Z,6.68
2023-01-09T07:10:01.065Z,5.85
2023-01-09T07:12:27.643Z,6.72
2023-01-09T07:14:56.177Z,6.20
2023-01-09T07:17:23.906Z,6.47
2023-01-09T07:19:50.307Z,6.70
2023-01-09T07:22:17.846Z,6.60
2023-01-09T07:24:44.620Z,6.32
2023-01-09T07:27:13.351Z,6.80
2023-01-09T07:29:39.797Z,7.32
2023-01-09T07:32:06.724Z,7.03
2023-01-09T07:34:33.136Z,6.90
2023-01-09T07:36:59.770Z,7.55
2023-01-09T07:39:27.153Z,7.65
2023-01-09T07:41:53.750Z,7.85
2023-01-09T07:44:20.183Z,7.57
2023-01-09T07:46:46.893Z,7.22
2023-01-09T07:49:13.263Z,7.43
2023-01-09T07:51:43.102Z,7.00
2023-01-09T07:54:11.342Z,6.53
2023-01-09T07:56:38.263Z,6.28
2023-01-09T07:59:04.706Z,5.88
2023-01-09T08:01:31.717Z,6.30
2023-01-09T08:03:58.163Z,6.28
2023-01-09T08:06:24.654Z,5.47
2023-01-09T08:08:51.084Z,5.45
2023-01-09T08:11:17.683Z,5.10
2023-01-09T08:13:44.098Z,4.88
2023-01-09T08:16:10.674Z,4.80
2023-01-09T08:18:37.083Z,3.95
2023-01-09T08:21:03.624Z,4.70
2023-01-09T08:23:30.046Z,4.53
2023-01-09T08:25:56.433Z,3.83
2023-01-09T08:28:22.846Z,4.20
2023-01-09T08:30:49.666Z,3.83
2023-01-09T08:33:16.205Z,3.47
2023-01-09T08:35:44.499Z,3.72
2023-01-09T08:38:11.265Z,3.28
2023-01-09T08:40:38.180Z,3.10
2023-01-09T08:43:23.466Z,2.80
2023-01-09T08:46:09.032Z,2.60
2023-01-09T08:48:35.542Z,2.50
2023-01-09T08:51:02.373Z,2.45
2023-01-09T08:53:29.557Z,2.45
2023-01-09T08:55:56.181Z,2.40
2023-01-09T08:58:22.716Z,2.50
2023-01-09T09:00:49.214Z,3.00
2023-01-09T09:03:15.581Z,2.45
2023-01-09T09:05:42.099Z,2.40
2023-01-09T09:08:08.637Z,2.35
2023-01-09T09:10:35.239Z,2.40
2023-01-09T09:13:01.651Z,2.15
2023-01-09T09:15:28.502Z,2.28
2023-01-09T09:18:03.112Z,1.95
2023-01-09T09:20:32.331Z,2.75
2023-01-09T09:22:59.110Z,1.85
2023-01-09T09:25:26.109Z,2.10
2023-01-09T09:27:53.005Z,1.92
2023-01-09T09:30:20.215Z,1.63
2023-01-09T09:32:46.890Z,2.00
2023-01-09T09:35:13.903Z,1.90
2023-01-09T09:37:40.728Z,1.45
2023-01-09T09:40:18.824Z,1.98
2023-01-09T09:43:28.786Z,1.65
2023-01-09T09:46:18.168Z,1.67
2023-01-09T09:48:56.765Z,2.25
2023-01-09T09:51:23.285Z,1.70
2023-01-09T09:54:14.019Z,2.10
2023-01-09T09:56:59.389Z,1.70
2023-01-09T09:59:34.336Z,1.80
2023-01-09T10:02:14.763Z,1.85
2023-01-09T10:04:48.856Z,2.00
2023-01-09T10:10:24.935Z,1.88
2023-01-09T10:12:58.420Z,1.85
2023-01-09T10:15:31.117Z,2.33
2023-01-09T10:18:12.468Z,2.38
2023-01-09T10:20:38.939Z,2.03
2023-01-09T10:23:26.523Z,3.03
2023-01-09T10:26:32.503Z,2.30
2023-01-09T10:29:47.349Z,2.85
2023-01-09T10:32:28.820Z,2.30
2023-01-09T10:35:04.392Z,2.70
2023-01-09T10:37:40.226Z,2.30
2023-01-09T10:40:18.860Z,2.40
2023-01-09T10:42:50.077Z,2.75
2023-01-09T10:45:31.399Z,2.85
2023-01-09T10:48:05.030Z,3.00
2023-01-09T10:50:35.797Z,2.70
2023-01-09T10:53:15.541Z,2.83
2023-01-09T10:55:49.353Z,2.80
2023-01-09T10:58:22.557Z,3.00
2023-01-09T11:00:50.620Z,2.67
2023-01-09T11:03:22.517Z,3.03
2023-01-09T11:05:54.493Z,2.88
2023-01-09T11:08:31.513Z,2.70
2023-01-09T11:11:00.252Z,3.33
2023-01-09T11:13:35.075Z,3.20
2023-01-09T11:16:09.285Z,3.15
2023-01-09T11:18:47.852Z,3.88
2023-01-09T11:21:29.636Z,3.38
2023-01-09T11:23:56.940Z,3.85
2023-01-09T11:26:28.260Z,3.75
2023-01-09T11:29:11.767Z,2.90
2023-01-09T11:31:39.886Z,3.03
2023-01-09T11:34:15.632Z,3.42
2023-01-09T11:36:42.172Z,3.30
2023-01-09T11:39:22.721Z,2.80
2023-01-09T11:41:53.964Z,2.97
2023-01-09T11:44:32.761Z,3.00
2023-01-09T11:46:59.782Z,3.08
2023-01-09T11:49:31.082Z,2.50
2023-01-09T11:52:19.535Z,2.65
2023-01-09T11:54:55.279Z,2.45
2023-01-09T11:57:24.071Z,2.35
2023-01-09T11:59:50.666Z,2.00
2023-01-09T12:02:33.958Z,2.30
2023-01-09T12:08:00.096Z,2.47
2023-01-09T12:10:41.647Z,2.10
2023-01-09T12:13:35.920Z,2.20
2023-01-09T12:16:36.762Z,2.40
2023-01-09T12:19:05.893Z,1.88
2023-01-09T12:21:36.465Z,2.22
2023-01-09T12:24:09.748Z,2.10
2023-01-09T12:26:45.415Z,2.00
2023-01-09T12:32:57.073Z,1.98
2023-01-09T12:35:41.672Z,2.13
2023-01-09T12:38:26.893Z,2.35
2023-01-09T12:41:02.259Z,2.65
2023-01-09T12:43:37.628Z,2.38
2023-01-09T12:46:17.912Z,2.67
2023-01-09T12:49:07.307Z,2.58
2023-01-09T12:51:41.905Z,1.55
2023-01-09T12:54:26.416Z,1.70
2023-01-09T12:56:57.432Z,1.08
2023-01-09T12:59:32.089Z,1.02
2023-01-09T13:02:07.683Z,0.80
2023-01-09T13:04:40.899Z,0.80
2023-01-09T13:07:18.088Z,0.60
2023-01-09T13:09:56.599Z,0.47
2023-01-09T13:12:25.081Z,0.70
2023-01-09T13:15:05.511Z,0.90
2023-01-09T13:17:43.506Z,0.70
2023-01-09T13:20:44.960Z,0.70
2023-01-09T13:23:43.366Z,0.63
2023-01-09T13:26:35.134Z,0.80
2023-01-09T13:29:11.705Z,0.65
2023-01-09T13:32:10.224Z,0.57
2023-01-09T13:34:38.550Z,1.08
2023-01-09T13:37:05.565Z,0.90
2023-01-09T13:39:35.025Z,1.00
2023-01-09T13:42:23.434Z,1.58
2023-01-09T13:44:54.193Z,1.30
2023-01-09T13:47:27.795Z,1.30
2023-01-09T13:50:00.745Z,1.70
2023-01-09T13:55:25.261Z,1.50
2023-01-09T13:58:03.873Z,2.20
2023-01-09T14:00:36.470Z,2.00
2023-01-09T14:03:15.694Z,1.90
2023-01-09T14:05:42.016Z,2.03
2023-01-09T14:08:17.646Z,1.90
2023-01-09T14:10:43.986Z,2.20
2023-01-09T14:13:23.450Z,2.13
2023-01-09T14:15:51.930Z,2.20
2023-01-09T14:18:32.810Z,2.50
2023-01-09T14:21:10.810Z,2.00
2023-01-09T14:23:59.548Z,2.30
2023-01-09T14:26:57.172Z,2.65
2023-01-09T14:29:36.207Z,1.73
2023-01-09T14:32:20.972Z,1.45
2023-01-09T14:35:12.388Z,1.08
2023-01-09T14:37:40.934Z,0.90
2023-01-09T14:40:15.479Z,1.10
2023-01-09T14:42:44.376Z,1.25
2023-01-09T14:45:19.283Z,1.65
2023-01-09T14:47:48.479Z,1.50
2023-01-09T14:50:36.781Z,1.30
2023-01-09T14:53:23.854Z,1.23
2023-01-09T14:55:55.334Z,1.35
2023-01-09T14:58:35.528Z,1.30
2023-01-09T15:01:11.250Z,1.42
2023-01-09T15:03:41.403Z,1.50
2023-01-09T15:06:17.315Z,1.60
2023-01-09T15:08:54.852Z,2.10
2023-01-09T15:11:21.401Z,1.98
2023-01-09T15:13:50.885Z,2.60
2023-01-09T15:16:23.489Z,2.85
2023-01-09T15:19:00.589Z,2.67
2023-01-09T15:21:32.821Z,2.70
2023-01-09T15:24:34.304Z,2.78
2023-01-09T15:27:11.792Z,3.35
2023-01-09T15:29:38.487Z,3.65
2023-01-09T15:32:09.849Z,3.38
2023-01-09T15:34:36.539Z,3.60
2023-01-09T15:37:03.518Z,3.38
2023-01-09T15:39:35.998Z,3.67
2023-01-09T15:42:22.080Z,3.38
2023-01-09T15:44:53.584Z,2.88
2023-01-09T15:47:23.958Z,3.40
2023-01-09T15:49:50.915Z,3.47
2023-01-09T15:52:18.249Z,4.07
2023-01-09T15:54:49.076Z,3.70
2023-01-09T15:57:24.457Z,3.72
2023-01-09T15:59:53.970Z,3.63
2023-01-09T16:02:40.453Z,3.42
2023-01-09T16:05:15.641Z,3.78
2023-01-09T16:07:49.195Z,2.90
2023-01-09T16:10:24.875Z,2.67
2023-01-09T16:12:52.725Z,2.97
2023-01-09T16:15:20.487Z,3.83
2023-01-09T16:18:15.340Z,3.03
2023-01-09T16:20:42.544Z,2.80
2023-01-09T16:23:24.073Z,3.22
2023-01-09T16:25:50.805Z,3.40
2023-01-09T16:28:28.173Z,3.35
2023-01-09T16:31:05.035Z,3.92
2023-01-09T16:33:32.330Z,4.03
2023-01-09T16:35:59.096Z,3.35
2023-01-09T16:38:26.209Z,3.35
2023-01-09T16:41:18.475Z,3.20
2023-01-09T16:43:45.387Z,3.30
2023-01-09T16:46:13.863Z,3.40
2023-01-09T16:48:42.235Z,3.97
2023-01-09T16:51:16.218Z,3.13
2023-01-09T16:53:43.479Z,3.05
2023-01-09T16:56:27.624Z,2.95
2023-01-09T16:58:54.809Z,2.88
2023-01-09T17:01:22.503Z,2.97
2023-01-09T17:03:49.971Z,2.90
2023-01-09T17:06:23.490Z,2.92
2023-01-09T17:08:51.420Z,3.15
2023-01-09T17:11:31.908Z,2.60
2023-01-09T17:13:59.572Z,2.60
2023-01-09T17:16:26.307Z,2.50
2023-01-09T17:18:52.840Z,3.08
2023-01-09T17:21:24.705Z,2.70
2023-01-09T17:24:10.347Z,3.33
2023-01-09T17:26:58.058Z,2.50
2023-01-09T17:29:24.781Z,2.63
2023-01-09T17:31:51.224Z,2.60
2023-01-09T17:34:17.698Z,2.97
2023-01-09T17:36:44.511Z,3.35
2023-01-09T17:39:15.956Z,3.20
2023-01-09T17:41:42.836Z,3.55
2023-01-09T17:44:12.505Z,3.90
2023-01-09T17:46:41.606Z,4.03
2023-01-09T17:49:15.110Z,3.92
2023-01-09T17:51:41.535Z,3.80
2023-01-09T17:54:08.180Z,3.63
2023-01-09T17:56:37.563Z,4.25
2023-01-09T17:59:04.965Z,4.85
2023-01-09T18:01:31.576Z,5.70
2023-01-09T18:03:58.230Z,5.35
2023-01-09T18:06:24.895Z,5.35
2023-01-09T18:08:51.289Z,5.57
2023-01-09T18:11:19.948Z,5.72
2023-01-09T18:13:48.220Z,5.20
2023-01-09T18:16:17.421Z,5.80
2023-01-09T18:18:45.093Z,6.30
2023-01-09T18:21:15.346Z,5.70
2023-01-09T18:23:41.848Z,5.88
2023-01-09T18:26:09.287Z,5.85
2023-01-09T18:28:37.016Z,5.90
2023-01-09T18:31:04.830Z,6.85
2023-01-09T18:33:32.023Z,4.97
2023-01-09T18:36:07.915Z,6.05
2023-01-09T18:38:34.957Z,6.43
2023-01-09T18:41:03.288Z,6.15
2023-01-09T18:43:30.164Z,5.88
2023-01-09T18:45:56.905Z,5.68
2023-01-09T18:48:23.937Z,5.80
2023-01-09T18:50:50.507Z,6.10
2023-01-09T18:53:17.028Z,6.47
2023-01-09T18:55:43.633Z,6.13
2023-01-09T18:58:24.004Z,6.30
2023-01-09T19:00:51.543Z,6.65
2023-01-09T19:03:18.045Z,5.90
2023-01-09T19:05:44.848Z,6.43
2023-01-09T19:08:11.438Z,6.00
2023-01-09T19:10:37.931Z,6.88
2023-01-09T19:13:04.551Z,7.32
2023-01-09T19:15:31.106Z,6.70
2023-01-09T19:17:57.748Z,6.60
2023-01-09T19:20:24.286Z,7.07
2023-01-09T19:22:50.801Z,6.78
2023-01-09T19:25:17.483Z,7.18
2023-01-09T19:27:43.982Z,7.10
2023-01-09T19:30:12.300Z,6.47
2023-01-09T19:32:39.815Z,7.38
2023-01-09T19:35:06.476Z,8.05
2023-01-09T19:37:35.042Z,7.82
2023-01-09T19:40:01.515Z,7.45
2023-01-09T19:42:28.097Z,8.18
2023-01-09T19:44:54.647Z,7.75
2023-01-09T19:47:21.159Z,8.02
2023-01-09T19:49:47.721Z,8.45
2023-01-09T19:52:14.774Z,9.07
2023-01-09T19:54:41.348Z,9.27
2023-01-09T19:57:07.915Z,8.25
2023-01-09T19:59:36.035Z,9.70
2023-01-09T20:02:03.307Z,9.05
2023-01-09T20:04:29.986Z,9.13
2023-01-09T20:06:56.555Z,8.38
2023-01-09T20:09:25.754Z,8.73
2023-01-09T20:11:52.307Z,8.20
2023-01-09T20:14:19.346Z,9.57
2023-01-09T20:16:50.060Z,8.15
2023-01-09T20:19:16.982Z,8.48
2023-01-09T20:21:43.830Z,8.30
2023-01-09T20:24:14.408Z,8.75
2023-01-09T20:26:41.743Z,9.32
2023-01-09T20:29:10.921Z,8.20
2023-01-09T20:31:37.551Z,9.13
2023-01-09T20:34:04.527Z,9.73
2023-01-09T20:36:34.041Z,9.40
2023-01-09T20:39:04.375Z,8.90
2023-01-09T20:41:31.396Z,9.82
2023-01-09T20:44:07.308Z,8.80
2023-01-09T20:46:37.105Z,8.82
2023-01-09T20:49:06.499Z,8.27
2023-01-09T20:51:35.269Z,8.45
2023-01-09T20:54:02.207Z,8.32
2023-01-09T20:56:30.507Z,9.23
2023-01-09T20:58:58.909Z,9.45
2023-01-09T21:01:26.160Z,9.05
2023-01-09T21:03:54.089Z,9.30
2023-01-09T21:06:22.560Z,9.63
2023-01-09T21:08:50.838Z,9.20
2023-01-09T21:11:17.959Z,9.23
2023-01-09T21:13:44.524Z,9.48
2023-01-09T21:16:24.453Z,10.23
2023-01-09T21:18:52.450Z,9.18
2023-01-09T21:21:22.459Z,9.45
2023-01-09T21:23:51.975Z,9.30
2023-01-09T21:26:22.527Z,9.27
2023-01-09T21:28:51.456Z,9.48
2023-01-09T21:31:20.360Z,8.90
2023-01-09T21:33:47.807Z,8.02
2023-01-09T21:36:14.536Z,8.57
2023-01-09T21:38:41.109Z,8.40
2023-01-09T21:41:26.553Z,8.07
2023-01-09T21:44:11.442Z,8.85
2023-01-09T21:46:53.126Z,8.20
2023-01-09T21:49:20.914Z,8.68
2023-01-09T21:51:47.568Z,9.55
2023-01-09T21:54:14.558Z,9.55
2023-01-09T21:56:41.099Z,9.95
2023-01-09T21:59:07.819Z,9.68
2023-01-09T22:01:34.402Z,10.18
2023-01-09T22:04:00.933Z,9.18
2023-01-09T22:06:28.585Z,8.43
2023-01-09T22:08:56.093Z,8.75
2023-01-09T22:11:23.101Z,9.27
2023-01-09T22:13:50.415Z,9.05
2023-01-09T22:16:17.583Z,8.57
2023-01-09T22:18:44.312Z,8.75
2023-01-09T22:21:10.814Z,8.30
2023-01-09T22:23:37.373Z,9.50
2023-01-09T22:26:09.242Z,8.48
2023-01-09T22:28:35.775Z,8.05
2023-01-09T22:31:02.485Z,7.47
2023-01-09T22:33:29.121Z,7.38
2023-01-09T22:35:55.718Z,7.60
2023-01-09T22:38:22.461Z,6.35
2023-01-09T22:40:50.119Z,6.63
2023-01-09T22:43:17.341Z,6.68
2023-01-09T22:45:43.996Z,6.70
2023-01-09T22:48:10.756Z,6.20
2023-01-09T22:50:37.412Z,6.65
2023-01-09T22:53:04.122Z,5.40
2023-01-09T22:55:30.688Z,5.10
2023-01-09T22:57:57.315Z,4.90
2023-01-09T23:00:23.937Z,4.80
2023-01-09T23:02:50.621Z,5.10
2023-01-09T23:05:19.650Z,4.50
2023-01-09T23:07:46.292Z,4.10
2023-01-09T23:10:12.944Z,4.47
2023-01-09T23:12:39.460Z,3.72
2023-01-09T23:15:06.795Z,3.60
2023-01-09T23:17:33.327Z,3.33
2023-01-09T23:19:59.871Z,2.95
2023-01-09T23:22:26.337Z,2.70
2023-01-09T23:24:52.871Z,2.95
2023-01-09T23:27:19.335Z,3.40
2023-01-09T23:29:46.427Z,2.50
2023-01-09T23:32:14.163Z,2.85
2023-01-09T23:34:41.653Z,2.45
2023-01-09T23:37:09.679Z,2.40
2023-01-09T23:39:36.363Z,2.15
2023-01-09T23:42:21.615Z,2.20
2023-01-09T23:44:48.105Z,2.25
2023-01-09T23:47:14.873Z,2.78
2023-01-09T23:49:41.369Z,2.22
2023-01-09T23:52:08.890Z,1.90
2023-01-09T23:54:36.175Z,1.90
2023-01-09T23:57:02.921Z,2.60
2023-01-09T23:59:29.463Z,2.30
